Time,TemperatureF,DewpointF,PressureIn,WindDirection,WindDirectionDegrees,WindSpeedMPH,WindSpeedGustMPH,Humidity,HourlyPrecipIn,Conditions,Clouds,dailyrainin,SoftwareType,DateUTC
2013-07-19 00:00:00,77.2,73.3,30.12,North,357,0.0,0.0,88,0.00,CLR,CLR,0.00,WeatherDisplay:10.37,2013-07-19 04:00:00,
2013-07-19 00:05:00,77.2,73.7,30.12,North,357,0.0,0.0,89,0.00,CLR,CLR,0.00,WeatherDisplay:10.37,2013-07-19 04:05:00,
2013-07-19 00:10:00,77.2,73.7,30.12,North,357,0.0,0.0,89,0.00,CLR,CLR,0.00,WeatherDisplay:10.37,2013-07-19 04:10:00,
2013-07-19 00:15:00,77.2,73.7,30.12,North,357,0.0,0.0,89,0.00,CLR,CLR,0.00,WeatherDisplay:10.37,2013-07-19 04:15:00,
2013-07-19 00:20:00,77.0,73.5,30.12,North,357,0.0,0.0,89,0.00,CLR,CLR,0.00,WeatherDisplay:10.37,2013-07-19 04:20:00,
2013-07-19 00:25:00,77.2,74.0,30.12,North,357,0.0,0.0,90,0.00,CLR,CLR,0.00,WeatherDisplay:10.37,2013-07-19 04:25:00,
2013-07-19 00:30:00,77.0,73.8,30.12,North,357,0.0,0.0,90,0.00,CLR,CLR,0.00,WeatherDisplay:10.37,2013-07-19 04:30:00,
2013-07-19 00:35:00,77.0,73.8,30.12,North,357,0.0,0.0,90,0.00,CLR,CLR,0.00,WeatherDisplay:10.37,2013-07-19 04:35:00,
2013-07-19 00:40:00,77.0,73.8,30.12,North,357,0.0,0.0,90,0.00,CLR,CLR,0.00,WeatherDisplay:10.37,2013-07-19 04:40:00,
2013-07-19 00:45:00,77.0,73.8,30.12,North,357,0.0,0.0,90,0.00,CLR,CLR,0.00,WeatherDisplay:10.37,2013-07-19 04:45:00,
2013-07-19 00:50:00,77.0,74.2,30.12,North,357,0.0,0.0,91,0.00,CLR,CLR,0.00,WeatherDisplay:10.37,2013-07-19 04:50:00,
2013-07-19 00:55:00,76.8,74.0,30.12,North,357,0.0,0.0,91,0.00,CLR,CLR,0.00,WeatherDisplay:10.37,2013-07-19 04:55:00,
2013-07-19 01:00:00,76.8,74.0,30.12,North,357,0.0,0.0,91,0.00,CLR,CLR,0.00,WeatherDisplay:10.37,2013-07-19 05:00:00,
2013-07-19 01:05:00,76.6,73.8,30.12,North,357,0.0,0.0,91,0.00,CLR,CLR,0.00,WeatherDisplay:10.37,2013-07-19 05:05:00,
2013-07-19 01:10:00,76.6,73.8,30.12,North,357,0.0,0.0,91,0.00,CLR,CLR,0.00,WeatherDisplay:10.37,2013-07-19 05:10:00,
2013-07-19 01:15:00,76.6,73.8,30.12,North,357,0.0,0.0,91,0.00,CLR,CLR,0.00,WeatherDisplay:10.37,2013-07-19 05:15:00,
2013-07-19 01:20:00,76.5,73.6,30.12,North,357,0.0,0.0,91,0.00,CLR,CLR,0.00,WeatherDisplay:10.37,2013-07-19 05:20:00,
2013-07-19 01:25:00,76.5,74.0,30.12,North,357,0.0,0.0,92,0.00,CLR,CLR,0.00,WeatherDisplay:10.37,2013-07-19 05:25:00,
2013-07-19 01:30:00,76.5,74.0,30.12,North,357,0.0,0.0,92,0.00,CLR,CLR,0.00,WeatherDisplay:10.37,2013-07-19 05:30:00,
2013-07-19 01:35:00,76.3,73.8,30.12,North,357,0.0,0.0,92,0.00,CLR,CLR,0.00,WeatherDisplay:10.37,2013-07-19 05:35:00,
2013-07-19 01:40:00,76.3,73.8,30.12,North,357,0.0,0.0,92,0.00,CLR,CLR,0.00,WeatherDisplay:10.37,2013-07-19 05:40:00,
2013-07-19 01:45:00,76.1,73.6,30.12,North,357,0.0,0.0,92,0.00,CLR,CLR,0.00,WeatherDisplay:10.37,2013-07-19 05:45:00,
2013-07-19 01:50:00,76.1,73.6,30.12,North,357,0.0,0.0,92,0.00,CLR,CLR,0.00,WeatherDisplay:10.37,2013-07-19 05:50:00,
2013-07-19 01:55:00,76.1,73.6,30.12,North,357,0.0,0.0,92,0.00,CLR,CLR,0.00,WeatherDisplay:10.37,2013-07-19 05:55:00,
2013-07-19 02:00:00,76.1,73.6,30.12,North,357,0.0,0.0,92,0.00,CLR,CLR,0.00,WeatherDisplay:10.37,2013-07-19 06:00:00,
2013-07-19 02:05:00,76.1,73.9,30.09,North,357,0.0,0.0,93,0.00,CLR,CLR,0.00,WeatherDisplay:10.37,2013-07-19 06:05:00,
2013-07-19 02:10:00,75.9,73.7,30.09,North,357,0.0,0.0,93,0.00,CLR,CLR,0.00,WeatherDisplay:10.37,2013-07-19 06:10:00,
2013-07-19 02:15:00,75.9,73.7,30.09,North,357,0.0,0.0,93,0.00,CLR,CLR,0.00,WeatherDisplay:10.37,2013-07-19 06:15:00,
2013-07-19 02:20:00,75.9,73.7,30.09,North,357,0.0,0.0,93,0.00,CLR,CLR,0.00,WeatherDisplay:10.37,2013-07-19 06:20:00,
2013-07-19 02:25:00,75.9,73.7,30.09,North,357,0.0,0.0,93,0.00,CLR,CLR,0.00,WeatherDisplay:10.37,2013-07-19 06:25:00,
2013-07-19 02:30:00,75.7,73.6,30.09,North,357,0.0,0.0,93,0.00,CLR,CLR,0.00,WeatherDisplay:10.37,2013-07-19 06:30:00,
2013-07-19 02:35:00,75.7,73.6,30.09,North,357,0.0,0.0,93,0.00,CLR,CLR,0.00,WeatherDisplay:10.37,2013-07-19 06:35:00,
2013-07-19 02:40:00,75.7,73.6,30.09,North,357,0.0,0.0,93,0.00,CLR,CLR,0.00,WeatherDisplay:10.37,2013-07-19 06:40:00,
2013-07-19 02:45:00,75.6,73.4,30.09,North,357,0.0,0.0,93,0.00,CLR,CLR,0.00,WeatherDisplay:10.37,2013-07-19 06:45:00,
2013-07-19 02:50:00,75.6,73.7,30.09,NNE,23,0.0,0.0,94,0.00,CLR,CLR,0.00,WeatherDisplay:10.37,2013-07-19 06:50:00,
2013-07-19 02:55:00,75.6,73.7,30.09,SSE,160,0.0,0.0,94,0.00,CLR,CLR,0.00,WeatherDisplay:10.37,2013-07-19 06:55:00,
2013-07-19 03:00:00,75.4,73.5,30.09,SSE,162,0.0,0.0,94,0.00,CLR,CLR,0.00,WeatherDisplay:10.37,2013-07-19 07:00:00,
2013-07-19 03:05:00,75.4,73.5,30.09,SSE,162,0.0,0.0,94,0.00,CLR,CLR,0.00,WeatherDisplay:10.37,2013-07-19 07:05:00,
2013-07-19 03:10:00,75.2,73.4,30.09,SSE,162,0.0,0.0,94,0.00,CLR,CLR,0.00,WeatherDisplay:10.37,2013-07-19 07:10:00,
2013-07-19 03:15:00,75.2,73.4,30.09,SSE,162,0.0,0.0,94,0.00,CLR,CLR,0.00,WeatherDisplay:10.37,2013-07-19 07:15:00,
2013-07-19 03:20:00,75.2,73.4,30.09,SSE,153,0.0,0.0,94,0.00,CLR,CLR,0.00,WeatherDisplay:10.37,2013-07-19 07:20:00,
2013-07-19 03:25:00,75.2,73.4,30.06,East,94,0.0,0.0,94,0.00,CLR,CLR,0.00,WeatherDisplay:10.37,2013-07-19 07:25:00,
2013-07-19 03:30:00,75.2,73.4,30.06,ENE,64,0.0,0.0,94,0.00,CLR,CLR,0.00,WeatherDisplay:10.37,2013-07-19 07:30:00,
2013-07-19 03:35:00,75.2,73.4,30.06,ENE,65,0.0,0.0,94,0.00,CLR,CLR,0.00,WeatherDisplay:10.37,2013-07-19 07:35:00,
2013-07-19 03:40:00,75.2,73.7,30.09,ENE,65,0.0,0.0,95,0.00,CLR,CLR,0.00,WeatherDisplay:10.37,2013-07-19 07:40:00,
2013-07-19 03:45:00,75.2,73.7,30.09,ENE,65,0.0,0.0,95,0.00,CLR,CLR,0.00,WeatherDisplay:10.37,2013-07-19 07:45:00,
2013-07-19 03:50:00,75.2,73.7,30.09,ENE,65,0.0,0.0,95,0.00,CLR,CLR,0.00,WeatherDisplay:10.37,2013-07-19 07:50:00,
2013-07-19 03:55:00,75.2,73.7,30.09,ENE,65,0.0,0.0,95,0.00,CLR,CLR,0.00,WeatherDisplay:10.37,2013-07-19 07:55:00,
2013-07-19 04:00:00,75.2,73.7,30.09,NNE,29,0.0,0.0,95,0.00,CLR,CLR,0.00,WeatherDisplay:10.37,2013-07-19 08:00:00,
2013-07-19 04:05:00,75.2,73.7,30.09,North,0,0.0,0.0,95,0.00,CLR,CLR,0.00,WeatherDisplay:10.37,2013-07-19 08:05:00,
2013-07-19 04:10:00,75.2,73.7,30.09,North,0,0.0,0.0,95,0.00,CLR,CLR,0.00,WeatherDisplay:10.37,2013-07-19 08:10:00,
2013-07-19 04:15:00,75.2,73.7,30.09,North,359,0.0,0.0,95,0.00,CLR,CLR,0.00,WeatherDisplay:10.37,2013-07-19 08:15:00,
2013-07-19 04:20:00,75.2,73.7,30.09,North,357,0.0,0.0,95,0.00,CLR,CLR,0.00,WeatherDisplay:10.37,2013-07-19 08:20:00,
2013-07-19 04:25:00,75.2,73.7,30.09,North,357,0.0,0.0,95,0.00,CLR,CLR,0.00,WeatherDisplay:10.37,2013-07-19 08:25:00,
2013-07-19 04:30:00,75.2,73.7,30.09,North,357,0.0,0.0,95,0.00,CLR,CLR,0.00,WeatherDisplay:10.37,2013-07-19 08:30:00,
2013-07-19 04:35:00,75.2,74.0,30.09,North,357,0.0,0.0,96,0.00,CLR,CLR,0.00,WeatherDisplay:10.37,2013-07-19 08:35:00,
2013-07-19 04:40:00,75.2,74.0,30.09,North,357,0.0,0.0,96,0.00,CLR,CLR,0.00,WeatherDisplay:10.37,2013-07-19 08:40:00,
2013-07-19 04:45:00,75.2,74.0,30.09,North,357,0.0,0.0,96,0.00,CLR,CLR,0.00,WeatherDisplay:10.37,2013-07-19 08:45:00,
2013-07-19 04:50:00,75.0,73.8,30.09,North,357,0.0,0.0,96,0.00,CLR,CLR,0.00,WeatherDisplay:10.37,2013-07-19 08:50:00,
2013-07-19 04:55:00,75.0,73.8,30.09,North,357,0.0,0.0,96,0.00,CLR,CLR,0.00,WeatherDisplay:10.37,2013-07-19 08:55:00,
2013-07-19 05:00:00,75.0,73.8,30.09,North,357,0.0,0.0,96,0.00,CLR,CLR,0.00,WeatherDisplay:10.37,2013-07-19 09:00:00,
2013-07-19 05:05:00,75.0,73.8,30.09,North,357,0.0,0.0,96,0.00,CLR,CLR,0.00,WeatherDisplay:10.37,2013-07-19 09:05:00,
2013-07-19 05:10:00,74.8,73.6,30.09,North,357,0.0,0.0,96,0.00,CLR,CLR,0.00,WeatherDisplay:10.37,2013-07-19 09:10:00,
2013-07-19 05:15:00,74.8,73.6,30.09,North,357,0.0,0.0,96,0.00,CLR,CLR,0.00,WeatherDisplay:10.37,2013-07-19 09:15:00,
2013-07-19 05:20:00,74.8,73.6,30.09,North,357,0.0,0.0,96,0.00,CLR,CLR,0.00,WeatherDisplay:10.37,2013-07-19 09:20:00,
2013-07-19 05:30:00,74.7,73.4,30.09,North,357,0.0,0.0,96,0.00,CLR,CLR,0.00,WeatherDisplay:10.37,2013-07-19 09:30:00,
2013-07-19 05:35:00,74.7,73.4,30.09,North,357,0.0,0.0,96,0.00,CLR,CLR,0.00,WeatherDisplay:10.37,2013-07-19 09:35:00,
2013-07-19 05:40:00,74.5,73.3,30.09,North,357,0.0,0.0,96,0.00,CLR,CLR,0.00,WeatherDisplay:10.37,2013-07-19 09:40:00,
2013-07-19 05:45:00,74.5,73.3,30.09,North,357,0.0,0.0,96,0.00,CLR,CLR,0.00,WeatherDisplay:10.37,2013-07-19 09:45:00,
2013-07-19 05:50:00,74.3,73.1,30.09,North,357,0.0,0.0,96,0.00,CLR,CLR,0.00,WeatherDisplay:10.37,2013-07-19 09:50:00,
2013-07-19 05:55:00,74.3,73.4,30.09,North,357,0.0,0.0,97,0.00,CLR,CLR,0.00,WeatherDisplay:10.37,2013-07-19 09:55:00,
2013-07-19 06:00:00,74.3,73.4,30.09,North,357,0.0,0.0,97,0.00,CLR,CLR,0.00,WeatherDisplay:10.37,2013-07-19 10:00:00,
2013-07-19 06:05:00,74.1,73.2,30.09,North,357,0.0,0.0,97,0.00,CLR,CLR,0.00,WeatherDisplay:10.37,2013-07-19 10:05:00,
2013-07-19 06:10:00,74.1,73.2,30.09,North,357,0.0,0.0,97,0.00,CLR,CLR,0.00,WeatherDisplay:10.37,2013-07-19 10:10:00,
2013-07-19 06:15:00,74.1,73.2,30.09,North,357,0.0,0.0,97,0.00,CLR,CLR,0.00,WeatherDisplay:10.37,2013-07-19 10:15:00,
2013-07-19 06:20:00,73.9,73.0,30.09,North,357,0.0,0.0,97,0.00,CLR,CLR,0.00,WeatherDisplay:10.37,2013-07-19 10:20:00,
2013-07-19 06:25:00,73.9,73.0,30.09,North,357,0.0,0.0,97,0.00,CLR,CLR,0.00,WeatherDisplay:10.37,2013-07-19 10:25:00,
2013-07-19 06:30:00,73.9,73.0,30.09,North,357,0.0,0.0,97,0.00,CLR,CLR,0.00,WeatherDisplay:10.37,2013-07-19 10:30:00,
2013-07-19 06:35:00,73.9,73.9,30.09,North,359,0.0,0.0,100,0.00,CLR,CLR,0.00,WeatherDisplay:10.37,2013-07-19 10:35:00,
2013-07-19 06:40:00,73.9,73.9,30.09,North,358,0.0,0.0,100,0.00,CLR,CLR,0.00,WeatherDisplay:10.37,2013-07-19 10:40:00,
2013-07-19 06:50:00,73.8,73.8,30.09,NNE,13,0.0,0.0,100,0.00,CLR,CLR,0.00,WeatherDisplay:10.37,2013-07-19 10:50:00,
2013-07-19 06:55:00,73.9,73.9,30.09,North,11,0.0,0.0,100,0.00,CLR,CLR,0.00,WeatherDisplay:10.37,2013-07-19 10:55:00,
2013-07-19 07:00:00,73.9,73.9,30.09,NE,36,0.0,0.0,100,0.00,CLR,CLR,0.00,WeatherDisplay:10.37,2013-07-19 11:00:00,
2013-07-19 07:05:00,73.9,73.9,30.09,ESE,108,0.0,0.0,100,0.00,CLR,CLR,0.00,WeatherDisplay:10.37,2013-07-19 11:05:00,
2013-07-19 07:10:00,73.9,73.9,30.09,SE,137,0.0,0.0,100,0.00,CLR,CLR,0.00,WeatherDisplay:10.37,2013-07-19 11:10:00,
2013-07-19 07:15:00,73.9,73.9,30.09,SSE,163,0.0,0.0,100,0.00,CLR,CLR,0.00,WeatherDisplay:10.37,2013-07-19 11:15:00,
2013-07-19 07:20:00,73.9,73.9,30.09,South,172,0.0,0.0,100,0.00,CLR,CLR,0.00,WeatherDisplay:10.37,2013-07-19 11:20:00,
2013-07-19 07:25:00,74.1,74.1,30.09,South,172,0.0,0.0,100,0.00,CLR,CLR,0.00,WeatherDisplay:10.37,2013-07-19 11:25:00,
2013-07-19 07:30:00,74.1,74.1,30.09,South,172,0.0,0.0,100,0.00,CLR,CLR,0.00,WeatherDisplay:10.37,2013-07-19 11:30:00,
2013-07-19 07:35:00,74.3,74.3,30.09,South,172,0.0,0.0,100,0.00,CLR,CLR,0.00,WeatherDisplay:10.37,2013-07-19 11:35:00,
2013-07-19 07:40:00,74.3,74.3,30.09,South,170,0.0,0.0,100,0.00,CLR,CLR,0.00,WeatherDisplay:10.37,2013-07-19 11:40:00,
2013-07-19 07:45:00,74.5,74.5,30.09,SSE,156,0.0,0.0,100,0.00,CLR,CLR,0.00,WeatherDisplay:10.37,2013-07-19 11:45:00,
2013-07-19 07:50:00,74.5,74.5,30.09,ESE,103,0.0,0.0,100,0.00,CLR,CLR,0.00,WeatherDisplay:10.37,2013-07-19 11:50:00,
2013-07-19 07:55:00,74.7,74.7,30.12,NE,50,0.0,0.0,100,0.00,CLR,CLR,0.00,WeatherDisplay:10.37,2013-07-19 11:55:00,
2013-07-19 08:00:00,74.7,74.7,30.12,East,79,0.0,0.0,100,0.00,CLR,CLR,0.00,WeatherDisplay:10.37,2013-07-19 12:00:00,
2013-07-19 08:05:00,74.8,74.8,30.12,East,81,0.0,0.0,100,0.00,CLR,CLR,0.00,WeatherDisplay:10.37,2013-07-19 12:05:00,
2013-07-19 08:10:00,75.0,75.0,30.12,ESE,123,0.0,0.0,100,0.00,CLR,CLR,0.00,WeatherDisplay:10.37,2013-07-19 12:10:00,
2013-07-19 08:15:00,75.2,75.2,30.12,SE,143,0.0,0.0,100,0.00,CLR,CLR,0.00,WeatherDisplay:10.37,2013-07-19 12:15:00,
2013-07-19 08:20:00,75.4,75.4,30.12,ESE,107,0.0,0.0,100,0.00,CLR,CLR,0.00,WeatherDisplay:10.37,2013-07-19 12:20:00,
2013-07-19 08:25:00,75.6,75.6,30.12,East,100,0.0,0.0,100,0.00,CLR,CLR,0.00,WeatherDisplay:10.37,2013-07-19 12:25:00,
2013-07-19 08:30:00,75.9,75.9,30.12,ESE,113,0.0,0.0,100,0.00,CLR,CLR,0.00,WeatherDisplay:10.37,2013-07-19 12:30:00,
2013-07-19 08:35:00,76.0,76.0,30.12,SSE,155,0.0,0.0,100,0.00,CLR,CLR,0.00,WeatherDisplay:10.37,2013-07-19 12:35:00,
2013-07-19 08:40:00,76.3,76.3,30.12,South,181,0.0,0.0,100,0.00,CLR,CLR,0.00,WeatherDisplay:10.37,2013-07-19 12:40:00,
2013-07-19 08:45:00,76.5,76.5,30.12,SSE,168,0.0,0.0,100,0.00,CLR,CLR,0.00,WeatherDisplay:10.37,2013-07-19 12:45:00,
2013-07-19 08:50:00,76.8,76.8,30.12,South,178,0.0,0.0,100,0.00,CLR,CLR,0.00,WeatherDisplay:10.37,2013-07-19 12:50:00,
2013-07-19 08:55:00,77.0,77.0,30.12,South,170,0.0,0.0,100,0.00,CLR,CLR,0.00,WeatherDisplay:10.37,2013-07-19 12:55:00,
2013-07-19 09:00:00,77.2,77.2,30.12,SSE,155,0.0,0.0,100,0.00,CLR,CLR,0.00,WeatherDisplay:10.37,2013-07-19 13:00:00,
2013-07-19 09:05:00,77.5,77.5,30.12,SSE,157,0.0,0.0,100,0.00,CLR,CLR,0.00,WeatherDisplay:10.37,2013-07-19 13:05:00,
2013-07-19 09:10:00,77.8,77.8,30.12,SSE,147,0.0,0.0,100,0.00,CLR,CLR,0.00,WeatherDisplay:10.37,2013-07-19 13:10:00,
2013-07-19 09:15:00,78.1,77.2,30.12,SSE,150,0.0,0.0,97,0.00,CLR,CLR,0.00,WeatherDisplay:10.37,2013-07-19 13:15:00,
2013-07-19 09:20:00,78.4,77.5,30.12,SE,125,0.0,0.0,97,0.00,CLR,CLR,0.00,WeatherDisplay:10.37,2013-07-19 13:20:00,
2013-07-19 09:25:00,78.6,77.7,30.12,NE,40,0.0,0.0,97,0.00,CLR,CLR,0.00,WeatherDisplay:10.37,2013-07-19 13:25:00,
2013-07-19 09:30:00,78.9,77.7,30.12,NNE,17,0.0,0.0,96,0.00,CLR,CLR,0.00,WeatherDisplay:10.37,2013-07-19 13:30:00,
2013-07-19 09:35:00,79.2,77.6,30.12,NW,325,0.0,0.0,95,0.00,CLR,CLR,0.00,WeatherDisplay:10.37,2013-07-19 13:35:00,
2013-07-19 09:40:00,79.3,77.5,30.12,WSW,248,0.0,3.0,94,0.00,CLR,CLR,0.00,WeatherDisplay:10.37,2013-07-19 13:40:00,
2013-07-19 09:45:00,79.7,77.5,30.12,South,169,0.0,3.0,93,0.00,CLR,CLR,0.00,WeatherDisplay:10.37,2013-07-19 13:45:00,
2013-07-19 09:50:00,79.9,77.3,30.12,NE,44,0.0,0.0,92,0.00,CLR,CLR,0.00,WeatherDisplay:10.37,2013-07-19 13:50:00,
2013-07-19 09:55:00,80.2,77.4,30.12,SW,221,0.0,0.0,91,0.00,CLR,CLR,0.00,WeatherDisplay:10.37,2013-07-19 13:55:00,
2013-07-19 10:00:00,80.5,77.3,30.12,NNW,331,0.0,0.0,90,0.00,CLR,CLR,0.00,WeatherDisplay:10.37,2013-07-19 14:00:00,
2013-07-19 10:05:00,80.8,77.2,30.12,North,360,0.0,0.0,89,0.00,CLR,CLR,0.00,WeatherDisplay:10.37,2013-07-19 14:05:00,
2013-07-19 10:10:00,81.0,76.7,30.12,NW,309,0.0,0.0,87,0.00,CLR,CLR,0.00,WeatherDisplay:10.37,2013-07-19 14:10:00,
2013-07-19 10:15:00,81.4,76.8,30.12,NNW,343,0.0,0.0,86,0.00,CLR,CLR,0.00,WeatherDisplay:10.37,2013-07-19 14:15:00,
2013-07-19 10:20:00,81.7,76.4,30.12,North,356,0.0,0.0,84,0.00,CLR,CLR,0.00,WeatherDisplay:10.37,2013-07-19 14:20:00,
2013-07-19 10:25:00,81.9,75.8,30.12,WSW,253,0.0,0.0,82,0.00,CLR,CLR,0.00,WeatherDisplay:10.37,2013-07-19 14:25:00,
2013-07-19 10:30:00,82.2,76.2,30.12,SE,139,0.0,0.0,82,0.00,CLR,CLR,0.00,WeatherDisplay:10.37,2013-07-19 14:30:00,
2013-07-19 10:35:00,82.6,76.2,30.12,ESE,108,0.0,0.0,81,0.00,CLR,CLR,0.00,WeatherDisplay:10.37,2013-07-19 14:35:00,
2013-07-19 10:40:00,82.9,76.1,30.12,SSW,208,0.0,3.0,80,0.00,CLR,CLR,0.00,WeatherDisplay:10.37,2013-07-19 14:40:00,
2013-07-19 10:45:00,83.1,75.5,30.12,WSW,251,0.0,5.0,78,0.00,CLR,CLR,0.00,WeatherDisplay:10.37,2013-07-19 14:45:00,
2013-07-19 10:50:00,83.3,74.9,30.12,SE,130,0.0,3.0,76,0.00,CLR,CLR,0.00,WeatherDisplay:10.37,2013-07-19 14:50:00,
2013-07-19 10:55:00,83.3,73.7,30.12,SSE,148,1.0,5.0,73,0.00,CLR,CLR,0.00,WeatherDisplay:10.37,2013-07-19 14:55:00,
2013-07-19 11:00:00,83.3,73.3,30.12,SE,125,0.0,0.0,72,0.00,CLR,CLR,0.00,WeatherDisplay:10.37,2013-07-19 15:00:00,
2013-07-19 11:05:00,83.5,73.5,30.12,SE,125,0.0,0.0,72,0.00,CLR,CLR,0.00,WeatherDisplay:10.37,2013-07-19 15:05:00,
2013-07-19 11:10:00,83.7,73.3,30.12,SE,138,0.0,0.0,71,0.00,CLR,CLR,0.00,WeatherDisplay:10.37,2013-07-19 15:10:00,
2013-07-19 11:15:00,83.5,72.7,30.12,SE,140,0.0,0.0,70,0.00,CLR,CLR,0.00,WeatherDisplay:10.37,2013-07-19 15:15:00,
2013-07-19 11:20:00,83.4,73.0,30.12,SE,126,0.0,0.0,71,0.00,CLR,CLR,0.00,WeatherDisplay:10.37,2013-07-19 15:20:00,
2013-07-19 11:25:00,83.7,72.4,30.12,ESE,105,0.0,0.0,69,0.00,CLR,CLR,0.00,WeatherDisplay:10.37,2013-07-19 15:25:00,
2013-07-19 11:30:00,83.6,71.9,30.12,SSE,148,0.0,0.0,68,0.00,CLR,CLR,0.00,WeatherDisplay:10.37,2013-07-19 15:30:00,
2013-07-19 11:35:00,83.8,72.2,30.12,SSE,163,0.0,0.0,68,0.00,CLR,CLR,0.00,WeatherDisplay:10.37,2013-07-19 15:35:00,
2013-07-19 11:40:00,84.2,72.5,30.12,SE,138,0.0,0.0,68,0.00,CLR,CLR,0.00,WeatherDisplay:10.37,2013-07-19 15:40:00,
2013-07-19 11:45:00,84.0,71.4,30.12,SE,140,0.0,0.0,66,0.00,CLR,CLR,0.00,WeatherDisplay:10.37,2013-07-19 15:45:00,
2013-07-19 11:50:00,84.2,71.6,30.12,SSE,161,0.0,0.0,66,0.00,CLR,CLR,0.00,WeatherDisplay:10.37,2013-07-19 15:50:00,
2013-07-19 11:55:00,84.6,71.9,30.12,WNW,302,0.0,0.0,66,0.00,CLR,CLR,0.00,WeatherDisplay:10.37,2013-07-19 15:55:00,
2013-07-19 12:00:00,84.7,71.2,30.12,North,0,0.0,0.0,64,0.00,CLR,CLR,0.00,WeatherDisplay:10.37,2013-07-19 16:00:00,
2013-07-19 12:05:00,85.3,71.7,30.12,SE,137,0.0,3.0,64,0.00,CLR,CLR,0.00,WeatherDisplay:10.37,2013-07-19 16:05:00,
2013-07-19 12:10:00,85.9,71.9,30.12,South,174,1.0,4.0,63,0.00,CLR,CLR,0.00,WeatherDisplay:10.37,2013-07-19 16:10:00,
2013-07-19 12:15:00,86.4,72.3,30.12,NE,34,0.0,3.0,63,0.00,CLR,CLR,0.00,WeatherDisplay:10.37,2013-07-19 16:15:00,
2013-07-19 12:20:00,86.4,71.9,30.12,NNW,348,0.0,3.0,62,0.00,CLR,CLR,0.00,WeatherDisplay:10.37,2013-07-19 16:20:00,
2013-07-19 12:25:00,86.2,71.2,30.12,NE,38,0.0,0.0,61,0.00,CLR,CLR,0.00,WeatherDisplay:10.37,2013-07-19 16:25:00,
2013-07-19 12:30:00,85.9,70.4,30.12,ENE,64,0.0,0.0,60,0.00,CLR,CLR,0.00,WeatherDisplay:10.37,2013-07-19 16:30:00,
2013-07-19 12:35:00,85.6,69.7,30.12,NNE,19,0.0,0.0,59,0.00,CLR,CLR,0.00,WeatherDisplay:10.37,2013-07-19 16:35:00,
2013-07-19 12:40:00,85.8,69.3,30.09,ENE,69,0.0,0.0,58,0.00,CLR,CLR,0.00,WeatherDisplay:10.37,2013-07-19 16:40:00,
2013-07-19 12:45:00,86.4,70.3,30.09,West,276,0.0,5.0,59,0.00,CLR,CLR,0.00,WeatherDisplay:10.37,2013-07-19 16:45:00,
2013-07-19 12:50:00,87.1,70.5,30.09,WSW,238,1.0,7.0,58,0.00,CLR,CLR,0.00,WeatherDisplay:10.37,2013-07-19 16:50:00,
2013-07-19 12:55:00,87.3,69.1,30.09,South,177,0.0,3.0,55,0.00,CLR,CLR,0.00,WeatherDisplay:10.37,2013-07-19 16:55:00,
2013-07-19 13:00:00,87.6,70.5,30.09,NW,316,0.0,3.0,57,0.00,CLR,CLR,0.00,WeatherDisplay:10.37,2013-07-19 17:00:00,
2013-07-19 13:05:00,88.1,70.4,30.09,ENE,70,0.0,0.0,56,0.00,CLR,CLR,0.00,WeatherDisplay:10.37,2013-07-19 17:05:00,
2013-07-19 13:10:00,88.5,70.8,30.09,ENE,71,0.0,0.0,56,0.00,CLR,CLR,0.00,WeatherDisplay:10.37,2013-07-19 17:10:00,
2013-07-19 13:15:00,88.3,70.1,30.09,WNW,299,0.0,0.0,55,0.00,CLR,CLR,0.00,WeatherDisplay:10.37,2013-07-19 17:15:00,
2013-07-19 13:20:00,88.0,69.3,30.09,West,281,1.0,5.0,54,0.00,CLR,CLR,0.00,WeatherDisplay:10.37,2013-07-19 17:20:00,
2013-07-19 13:25:00,88.0,69.3,30.09,South,171,0.0,0.0,54,0.00,CLR,CLR,0.00,WeatherDisplay:10.37,2013-07-19 17:25:00,
2013-07-19 13:30:00,88.3,69.6,30.09,SSE,156,0.0,0.0,54,0.00,CLR,CLR,0.00,WeatherDisplay:10.37,2013-07-19 17:30:00,
2013-07-19 13:35:00,88.3,69.6,30.09,East,90,0.0,0.0,54,0.00,CLR,CLR,0.00,WeatherDisplay:10.37,2013-07-19 17:35:00,
2013-07-19 13:40:00,88.5,69.2,30.09,ESE,110,0.0,0.0,53,0.00,CLR,CLR,0.00,WeatherDisplay:10.37,2013-07-19 17:40:00,
2013-07-19 13:45:00,89.0,69.6,30.09,SE,146,0.0,3.0,53,0.00,CLR,CLR,0.00,WeatherDisplay:10.37,2013-07-19 17:45:00,
2013-07-19 13:50:00,89.2,69.3,30.09,SSE,161,0.0,0.0,52,0.00,CLR,CLR,0.00,WeatherDisplay:10.37,2013-07-19 17:50:00,
2013-07-19 13:55:00,89.4,67.7,30.06,SSE,160,0.0,0.0,49,0.00,CLR,CLR,0.00,WeatherDisplay:10.37,2013-07-19 17:55:00,
2013-07-19 14:00:00,89.3,68.8,30.06,SSE,165,0.0,7.0,51,0.00,CLR,CLR,0.00,WeatherDisplay:10.37,2013-07-19 18:00:00,
2013-07-19 14:05:00,89.6,68.5,30.06,South,169,1.0,7.0,50,0.00,CLR,CLR,0.00,WeatherDisplay:10.37,2013-07-19 18:05:00,
2013-07-19 14:10:00,90.1,70.1,30.06,SSW,207,0.0,5.0,52,0.00,CLR,CLR,0.00,WeatherDisplay:10.37,2013-07-19 18:10:00,
2013-07-19 14:15:00,90.3,69.2,30.06,WSW,239,0.0,0.0,50,0.00,CLR,CLR,0.00,WeatherDisplay:10.37,2013-07-19 18:15:00,
2013-07-19 14:20:00,90.5,68.7,30.06,WSW,258,0.0,0.0,49,0.00,CLR,CLR,0.00,WeatherDisplay:10.37,2013-07-19 18:20:00,
2013-07-19 14:25:00,90.5,68.7,30.06,SE,130,0.0,0.0,49,0.00,CLR,CLR,0.00,WeatherDisplay:10.37,2013-07-19 18:25:00,
2013-07-19 14:30:00,90.4,67.5,30.06,SE,139,0.0,0.0,47,0.00,CLR,CLR,0.00,WeatherDisplay:10.37,2013-07-19 18:30:00,
2013-07-19 14:35:00,89.8,66.9,30.06,SSW,194,1.0,3.0,47,0.00,CLR,CLR,0.00,WeatherDisplay:10.37,2013-07-19 18:35:00,
2013-07-19 14:40:00,89.1,66.9,30.06,SSW,197,0.0,0.0,48,0.00,CLR,CLR,0.00,WeatherDisplay:10.37,2013-07-19 18:40:00,
2013-07-19 14:45:00,88.7,67.1,30.06,South,179,0.0,0.0,49,0.00,CLR,CLR,0.00,WeatherDisplay:10.37,2013-07-19 18:45:00,
2013-07-19 14:50:00,87.9,68.0,30.06,ESE,122,0.0,0.0,52,0.00,CLR,CLR,0.00,WeatherDisplay:10.37,2013-07-19 18:50:00,
2013-07-19 14:55:00,87.1,67.9,30.06,SSE,149,0.0,0.0,53,0.00,CLR,CLR,0.00,WeatherDisplay:10.37,2013-07-19 18:55:00,
2013-07-19 15:00:00,86.7,69.7,30.06,South,170,0.0,0.0,57,0.00,CLR,CLR,0.00,WeatherDisplay:10.37,2013-07-19 19:00:00,
2013-07-19 15:05:00,86.9,68.8,30.06,SSE,158,0.0,0.0,55,0.00,CLR,CLR,0.00,WeatherDisplay:10.37,2013-07-19 19:05:00,
2013-07-19 15:10:00,87.6,69.5,30.06,ESE,118,0.0,4.0,55,0.00,CLR,CLR,0.00,WeatherDisplay:10.37,2013-07-19 19:10:00,
2013-07-19 15:15:00,88.2,69.5,30.06,East,101,0.0,0.0,54,0.00,CLR,CLR,0.00,WeatherDisplay:10.37,2013-07-19 19:15:00,
2013-07-19 15:20:00,89.1,68.6,30.06,NE,55,0.0,0.0,51,0.00,CLR,CLR,0.00,WeatherDisplay:10.37,2013-07-19 19:20:00,
2013-07-19 15:25:00,89.6,69.6,30.03,NE,36,0.0,3.0,52,0.00,CLR,CLR,0.00,WeatherDisplay:10.37,2013-07-19 19:25:00,
2013-07-19 15:30:00,89.8,69.2,30.03,East,99,0.0,0.0,51,0.00,CLR,CLR,0.00,WeatherDisplay:10.37,2013-07-19 19:30:00,
2013-07-19 15:35:00,89.4,68.9,30.03,SSE,161,0.0,5.0,51,0.00,CLR,CLR,0.00,WeatherDisplay:10.37,2013-07-19 19:35:00,
2013-07-19 15:40:00,89.0,68.0,30.03,South,169,0.0,7.0,50,0.00,CLR,CLR,0.00,WeatherDisplay:10.37,2013-07-19 19:40:00,
2013-07-19 15:45:00,88.7,68.2,30.03,SSW,193,0.0,0.0,51,0.00,CLR,CLR,0.00,WeatherDisplay:10.37,2013-07-19 19:45:00,
2013-07-19 15:50:00,88.7,67.1,30.03,SW,225,0.0,3.0,49,0.00,CLR,CLR,0.00,WeatherDisplay:10.37,2013-07-19 19:50:00,
2013-07-19 15:55:00,88.5,67.5,30.03,WSW,249,0.0,0.0,50,0.00,CLR,CLR,0.00,WeatherDisplay:10.37,2013-07-19 19:55:00,
2013-07-19 16:00:00,88.3,67.9,30.03,SW,215,0.0,5.0,51,0.00,CLR,CLR,0.00,WeatherDisplay:10.37,2013-07-19 20:00:00,
2013-07-19 16:05:00,88.0,67.0,30.03,SSW,204,0.0,0.0,50,0.00,CLR,CLR,0.00,WeatherDisplay:10.37,2013-07-19 20:05:00,
2013-07-19 16:10:00,87.8,67.4,30.03,SSW,196,0.0,4.0,51,0.00,CLR,CLR,0.00,WeatherDisplay:10.37,2013-07-19 20:10:00,
2013-07-19 16:15:00,87.4,67.7,30.03,SSE,158,0.0,0.0,52,0.00,CLR,CLR,0.00,WeatherDisplay:10.37,2013-07-19 20:15:00,
2013-07-19 16:20:00,87.4,67.6,30.03,South,176,2.0,3.0,52,0.00,CLR,CLR,0.00,WeatherDisplay:10.37,2013-07-19 20:20:00,
2013-07-19 16:25:00,87.3,67.5,30.03,SSW,194,0.0,4.0,52,0.00,CLR,CLR,0.00,WeatherDisplay:10.37,2013-07-19 20:25:00,
2013-07-19 16:30:00,87.1,67.9,30.03,SSW,192,0.0,0.0,53,0.00,CLR,CLR,0.00,WeatherDisplay:10.37,2013-07-19 20:30:00,
2013-07-19 16:35:00,86.9,67.2,30.03,South,171,0.0,5.0,52,0.00,CLR,CLR,0.00,WeatherDisplay:10.37,2013-07-19 20:35:00,
2013-07-19 16:40:00,86.7,67.5,30.03,SSE,162,0.0,0.0,53,0.00,CLR,CLR,0.00,WeatherDisplay:10.37,2013-07-19 20:40:00,
2013-07-19 16:45:00,86.7,68.1,30.03,SSE,160,0.0,7.0,54,0.00,CLR,CLR,0.00,WeatherDisplay:10.37,2013-07-19 20:45:00,
2013-07-19 16:50:00,86.7,68.6,30.03,SSE,150,0.0,7.0,55,0.00,CLR,CLR,0.00,WeatherDisplay:10.37,2013-07-19 20:50:00,
2013-07-19 16:55:00,86.7,68.6,30.03,SW,214,0.0,3.0,55,0.00,CLR,CLR,0.00,WeatherDisplay:10.37,2013-07-19 20:55:00,
2013-07-19 17:00:00,86.6,68.0,30.03,SW,217,0.0,0.0,54,0.00,CLR,CLR,0.00,WeatherDisplay:10.37,2013-07-19 21:00:00,
2013-07-19 17:05:00,86.5,68.5,30.03,South,173,0.0,3.0,55,0.00,CLR,CLR,0.00,WeatherDisplay:10.37,2013-07-19 21:05:00,
2013-07-19 17:10:00,86.5,68.5,30.00,South,173,0.0,5.0,55,0.00,CLR,CLR,0.00,WeatherDisplay:10.37,2013-07-19 21:10:00,
2013-07-19 17:15:00,86.4,67.8,30.00,SSE,164,0.0,0.0,54,0.00,CLR,CLR,0.00,WeatherDisplay:10.37,2013-07-19 21:15:00,
2013-07-19 17:20:00,86.2,67.6,30.00,SE,134,0.0,5.0,54,0.00,CLR,CLR,0.00,WeatherDisplay:10.37,2013-07-19 21:20:00,
2013-07-19 17:25:00,86.2,67.6,30.00,SE,131,0.0,5.0,54,0.00,CLR,CLR,0.00,WeatherDisplay:10.37,2013-07-19 21:25:00,
2013-07-19 17:30:00,86.1,67.5,30.00,ESE,103,0.0,5.0,54,0.00,CLR,CLR,0.00,WeatherDisplay:10.37,2013-07-19 21:30:00,
2013-07-19 17:35:00,86.0,68.0,30.00,ENE,70,0.0,0.0,55,0.00,CLR,CLR,0.00,WeatherDisplay:10.37,2013-07-19 21:35:00,
2013-07-19 17:40:00,85.8,67.3,30.00,SE,128,0.0,5.0,54,0.00,CLR,CLR,0.00,WeatherDisplay:10.37,2013-07-19 21:40:00,
2013-07-19 17:45:00,85.7,67.1,30.00,South,179,0.0,7.0,54,0.00,CLR,CLR,0.00,WeatherDisplay:10.37,2013-07-19 21:45:00,
2013-07-19 17:50:00,85.6,67.6,30.00,ENE,74,0.0,7.0,55,0.00,CLR,CLR,0.00,WeatherDisplay:10.37,2013-07-19 21:50:00,
2013-07-19 17:55:00,85.5,67.4,30.00,East,87,0.0,0.0,55,0.00,CLR,CLR,0.00,WeatherDisplay:10.37,2013-07-19 21:55:00,
2013-07-19 18:00:00,85.5,67.4,30.00,SE,145,0.0,7.0,55,0.00,CLR,CLR,0.00,WeatherDisplay:10.37,2013-07-19 22:00:00,
2013-07-19 18:05:00,85.5,68.0,30.00,SE,137,0.0,0.0,56,0.00,CLR,CLR,0.00,WeatherDisplay:10.37,2013-07-19 22:05:00,
2013-07-19 18:10:00,85.5,66.9,30.00,SE,140,2.0,7.0,54,0.00,CLR,CLR,0.00,WeatherDisplay:10.37,2013-07-19 22:10:00,
2013-07-19 18:15:00,85.8,67.8,30.00,South,179,0.0,7.0,55,0.00,CLR,CLR,0.00,WeatherDisplay:10.37,2013-07-19 22:15:00,
2013-07-19 18:20:00,85.8,67.3,30.00,SSW,205,0.0,3.0,54,0.00,CLR,CLR,0.00,WeatherDisplay:10.37,2013-07-19 22:20:00,
2013-07-19 18:25:00,85.6,67.1,30.00,South,180,0.0,3.0,54,0.00,CLR,CLR,0.00,WeatherDisplay:10.37,2013-07-19 22:25:00,
2013-07-19 18:30:00,85.3,67.3,30.00,SSW,201,0.0,3.0,55,0.00,CLR,CLR,0.00,WeatherDisplay:10.37,2013-07-19 22:30:00,
2013-07-19 18:35:00,84.9,66.9,30.00,SSE,162,0.0,0.0,55,0.00,CLR,CLR,0.00,WeatherDisplay:10.37,2013-07-19 22:35:00,
2013-07-19 18:40:00,84.6,67.1,30.00,North,352,0.0,0.0,56,0.00,CLR,CLR,0.00,WeatherDisplay:10.37,2013-07-19 22:40:00,
2013-07-19 18:45:00,84.4,67.0,30.00,WNW,292,0.0,0.0,56,0.00,CLR,CLR,0.00,WeatherDisplay:10.37,2013-07-19 22:45:00,
2013-07-19 18:50:00,84.2,67.3,30.00,South,172,0.0,0.0,57,0.00,CLR,CLR,0.00,WeatherDisplay:10.37,2013-07-19 22:50:00,
2013-07-19 18:55:00,84.0,67.1,30.00,South,180,0.0,0.0,57,0.00,CLR,CLR,0.00,WeatherDisplay:10.37,2013-07-19 22:55:00,
2013-07-19 19:00:00,83.7,67.3,30.00,SSE,165,0.0,0.0,58,0.00,CLR,CLR,0.00,WeatherDisplay:10.37,2013-07-19 23:00:00,
2013-07-19 19:05:00,83.5,67.1,30.00,East,89,0.0,0.0,58,0.00,CLR,CLR,0.00,WeatherDisplay:10.37,2013-07-19 23:05:00,
2013-07-19 19:10:00,83.3,66.5,30.00,ESE,121,0.0,0.0,57,0.00,CLR,CLR,0.00,WeatherDisplay:10.37,2013-07-19 23:10:00,
2013-07-19 19:15:00,83.1,66.3,30.00,South,171,0.0,0.0,57,0.00,CLR,CLR,0.00,WeatherDisplay:10.37,2013-07-19 23:15:00,
2013-07-19 19:20:00,82.9,66.1,30.00,SSE,158,0.0,0.0,57,0.00,CLR,CLR,0.00,WeatherDisplay:10.37,2013-07-19 23:20:00,
2013-07-19 19:25:00,82.7,65.9,30.00,SE,128,0.0,0.0,57,0.00,CLR,CLR,0.00,WeatherDisplay:10.37,2013-07-19 23:25:00,
2013-07-19 19:30:00,82.5,65.8,30.00,ESE,114,0.0,0.0,57,0.00,CLR,CLR,0.00,WeatherDisplay:10.37,2013-07-19 23:30:00,
2013-07-19 19:35:00,82.3,65.6,30.00,ESE,114,0.0,0.0,57,0.00,CLR,CLR,0.00,WeatherDisplay:10.37,2013-07-19 23:35:00,
2013-07-19 19:40:00,82.0,65.3,30.00,ESE,114,0.0,0.0,57,0.00,CLR,CLR,0.00,WeatherDisplay:10.37,2013-07-19 23:40:00,
2013-07-19 19:45:00,81.7,65.0,30.00,ESE,115,0.0,0.0,57,0.00,CLR,CLR,0.00,WeatherDisplay:10.37,2013-07-19 23:45:00,
2013-07-19 19:50:00,81.5,64.8,30.00,ESE,114,0.0,0.0,57,0.00,CLR,CLR,0.00,WeatherDisplay:10.37,2013-07-19 23:50:00,
2013-07-19 19:55:00,81.2,65.0,30.00,ESE,114,0.0,0.0,58,0.00,CLR,CLR,0.00,WeatherDisplay:10.37,2013-07-19 23:55:00,
2013-07-19 20:00:00,81.0,64.8,30.00,ESE,114,0.0,0.0,58,0.00,CLR,CLR,0.00,WeatherDisplay:10.37,2013-07-20 00:00:00,
2013-07-19 20:05:00,80.8,65.1,30.00,ESE,114,0.0,0.0,59,0.00,CLR,CLR,0.00,WeatherDisplay:10.37,2013-07-20 00:05:00,
2013-07-19 20:10:00,80.6,64.9,30.00,ESE,114,0.0,0.0,59,0.00,CLR,CLR,0.00,WeatherDisplay:10.37,2013-07-20 00:10:00,
2013-07-19 20:15:00,80.2,65.1,30.00,ESE,114,0.0,0.0,60,0.00,CLR,CLR,0.00,WeatherDisplay:10.37,2013-07-20 00:15:00,
2013-07-19 20:20:00,80.1,65.4,30.00,ESE,114,0.0,0.0,61,0.00,CLR,CLR,0.00,WeatherDisplay:10.37,2013-07-20 00:20:00,
2013-07-19 20:25:00,79.7,65.1,30.00,ESE,115,0.0,0.0,61,0.00,CLR,CLR,0.00,WeatherDisplay:10.37,2013-07-20 00:25:00,
2013-07-19 20:30:00,79.3,65.2,30.00,ESE,114,0.0,0.0,62,0.00,CLR,CLR,0.00,WeatherDisplay:10.37,2013-07-20 00:30:00,
2013-07-19 20:35:00,79.2,65.5,30.00,ESE,114,0.0,0.0,63,0.00,CLR,CLR,0.00,WeatherDisplay:10.37,2013-07-20 00:35:00,
2013-07-19 20:40:00,78.9,65.7,30.00,ESE,114,0.0,0.0,64,0.00,CLR,CLR,0.00,WeatherDisplay:10.37,2013-07-20 00:40:00,
2013-07-19 20:45:00,78.6,65.4,30.00,ESE,114,0.0,0.0,64,0.00,CLR,CLR,0.00,WeatherDisplay:10.37,2013-07-20 00:45:00,
2013-07-19 20:50:00,78.4,65.7,30.00,ESE,114,0.0,0.0,65,0.00,CLR,CLR,0.00,WeatherDisplay:10.37,2013-07-20 00:50:00,
2013-07-19 20:55:00,78.1,65.8,30.00,ESE,114,0.0,0.0,66,0.00,CLR,CLR,0.00,WeatherDisplay:10.37,2013-07-20 00:55:00,
2013-07-19 21:00:00,77.9,65.6,30.00,ESE,114,0.0,0.0,66,0.00,CLR,CLR,0.00,WeatherDisplay:10.37,2013-07-20 01:00:00,
2013-07-19 21:05:00,77.7,66.3,30.00,ESE,114,0.0,0.0,68,0.00,CLR,CLR,0.00,WeatherDisplay:10.37,2013-07-20 01:05:00,
2013-07-19 21:10:00,77.5,66.1,30.00,ESE,114,0.0,0.0,68,0.00,CLR,CLR,0.00,WeatherDisplay:10.37,2013-07-20 01:10:00,
2013-07-19 21:15:00,77.4,66.4,30.00,ESE,114,0.0,0.0,69,0.00,CLR,CLR,0.00,WeatherDisplay:10.37,2013-07-20 01:15:00,
2013-07-19 21:25:00,77.0,66.5,30.00,ESE,114,0.0,0.0,70,0.00,CLR,CLR,0.00,WeatherDisplay:10.37,2013-07-20 01:25:00,
2013-07-19 21:30:00,76.8,66.7,30.00,ESE,114,0.0,0.0,71,0.00,CLR,CLR,0.00,WeatherDisplay:10.37,2013-07-20 01:30:00,
2013-07-19 21:35:00,76.7,66.6,30.00,ESE,114,0.0,0.0,71,0.00,CLR,CLR,0.00,WeatherDisplay:10.37,2013-07-20 01:35:00,
2013-07-19 21:40:00,76.5,66.8,30.00,ESE,114,0.0,0.0,72,0.00,CLR,CLR,0.00,WeatherDisplay:10.37,2013-07-20 01:40:00,
2013-07-19 21:45:00,76.3,66.7,30.00,ESE,114,0.0,0.0,72,0.00,CLR,CLR,0.00,WeatherDisplay:10.37,2013-07-20 01:45:00,
2013-07-19 21:50:00,76.3,67.0,30.00,ESE,114,0.0,0.0,73,0.00,CLR,CLR,0.00,WeatherDisplay:10.37,2013-07-20 01:50:00,
2013-07-19 21:55:00,76.1,66.8,30.03,ESE,114,0.0,0.0,73,0.00,CLR,CLR,0.00,WeatherDisplay:10.37,2013-07-20 01:55:00,
2013-07-19 22:00:00,75.9,67.0,30.03,ESE,114,0.0,0.0,74,0.00,CLR,CLR,0.00,WeatherDisplay:10.37,2013-07-20 02:00:00,
2013-07-19 22:05:00,75.9,67.4,30.03,ESE,114,0.0,0.0,75,0.00,CLR,CLR,0.00,WeatherDisplay:10.37,2013-07-20 02:05:00,
2013-07-19 22:10:00,75.7,67.2,30.03,ESE,114,0.0,0.0,75,0.00,CLR,CLR,0.00,WeatherDisplay:10.37,2013-07-20 02:10:00,
2013-07-19 22:15:00,75.6,67.5,30.03,ESE,114,0.0,0.0,76,0.00,CLR,CLR,0.00,WeatherDisplay:10.37,2013-07-20 02:15:00,
2013-07-19 22:20:00,75.4,67.3,30.03,ESE,114,0.0,0.0,76,0.00,CLR,CLR,0.00,WeatherDisplay:10.37,2013-07-20 02:20:00,
2013-07-19 22:25:00,75.2,67.5,30.03,ESE,114,0.0,0.0,77,0.00,CLR,CLR,0.00,WeatherDisplay:10.37,2013-07-20 02:25:00,
2013-07-19 22:30:00,75.2,67.5,30.03,ESE,114,0.0,0.0,77,0.00,CLR,CLR,0.00,WeatherDisplay:10.37,2013-07-20 02:30:00,
2013-07-19 22:35:00,75.0,67.7,30.03,ESE,114,0.0,0.0,78,0.00,CLR,CLR,0.00,WeatherDisplay:10.37,2013-07-20 02:35:00,
2013-07-19 22:40:00,75.0,67.7,30.06,ESE,114,0.0,0.0,78,0.00,CLR,CLR,0.00,WeatherDisplay:10.37,2013-07-20 02:40:00,
2013-07-19 22:45:00,74.8,67.5,30.06,ESE,114,0.0,0.0,78,0.00,CLR,CLR,0.00,WeatherDisplay:10.37,2013-07-20 02:45:00,
2013-07-19 22:50:00,74.8,67.9,30.06,ESE,114,0.0,0.0,79,0.00,CLR,CLR,0.00,WeatherDisplay:10.37,2013-07-20 02:50:00,
2013-07-19 22:55:00,74.8,67.9,30.06,ESE,114,0.0,0.0,79,0.00,CLR,CLR,0.00,WeatherDisplay:10.37,2013-07-20 02:55:00,
2013-07-19 23:00:00,74.7,68.1,30.06,ESE,114,0.0,0.0,80,0.00,CLR,CLR,0.00,WeatherDisplay:10.37,2013-07-20 03:00:00,
2013-07-19 23:05:00,74.7,68.1,30.06,ESE,114,0.0,0.0,80,0.00,CLR,CLR,0.00,WeatherDisplay:10.37,2013-07-20 03:05:00,
2013-07-19 23:10:00,74.7,68.4,30.06,ESE,114,0.0,0.0,81,0.00,CLR,CLR,0.00,WeatherDisplay:10.37,2013-07-20 03:10:00,
2013-07-19 23:15:00,74.7,68.4,30.06,ESE,114,0.0,0.0,81,0.00,CLR,CLR,0.00,WeatherDisplay:10.37,2013-07-20 03:15:00,
2013-07-19 23:20:00,74.7,68.4,30.06,ESE,114,0.0,0.0,81,0.00,CLR,CLR,0.00,WeatherDisplay:10.37,2013-07-20 03:20:00,
2013-07-19 23:25:00,74.7,68.8,30.06,ESE,114,0.0,0.0,82,0.00,CLR,CLR,0.00,WeatherDisplay:10.37,2013-07-20 03:25:00,
2013-07-19 23:30:00,74.7,68.8,30.06,ESE,114,0.0,0.0,82,0.00,CLR,CLR,0.00,WeatherDisplay:10.37,2013-07-20 03:30:00,
2013-07-19 23:35:00,74.5,68.6,30.06,ESE,114,0.0,0.0,82,0.00,CLR,CLR,0.00,WeatherDisplay:10.37,2013-07-20 03:35:00,
2013-07-19 23:40:00,74.5,69.0,30.06,ESE,114,0.0,0.0,83,0.00,CLR,CLR,0.00,WeatherDisplay:10.37,2013-07-20 03:40:00,
2013-07-19 23:45:00,74.5,69.0,30.03,ESE,114,0.0,0.0,83,0.00,CLR,CLR,0.00,WeatherDisplay:10.37,2013-07-20 03:45:00,
2013-07-19 23:50:00,74.5,69.0,30.03,ESE,114,0.0,0.0,83,0.00,CLR,CLR,0.00,WeatherDisplay:10.37,2013-07-20 03:50:00,
2013-07-19 23:55:00,74.5,69.0,30.06,ESE,114,0.0,0.0,83,0.00,CLR,CLR,0.00,WeatherDisplay:10.37,2013-07-20 03:55:00,